createdAt,value
2017-08-06T00:00:36.722Z,0
2017-08-06T00:01:37.048Z,0
2017-08-06T00:02:36.999Z,0
2017-08-06T00:03:36.673Z,0
2017-08-06T00:04:37.293Z,0
2017-08-06T00:05:37.275Z,0
2017-08-06T00:06:37.297Z,0
2017-08-06T00:07:37.273Z,0
2017-08-06T00:08:36.841Z,0
2017-08-06T00:09:37.169Z,0
2017-08-06T00:10:37.803Z,0
2017-08-06T00:11:37.396Z,0
2017-08-06T00:12:37.179Z,0
2017-08-06T00:13:36.855Z,0
2017-08-06T00:14:37.472Z,0
2017-08-06T00:15:37.152Z,0
2017-08-06T00:16:37.441Z,0
2017-08-06T00:17:36.498Z,0
2017-08-06T00:18:37.103Z,0
2017-08-06T00:19:37.411Z,0
2017-08-06T00:20:36.767Z,0
2017-08-06T00:21:36.752Z,0
2017-08-06T00:22:37.056Z,0
2017-08-06T00:23:36.421Z,0
2017-08-06T00:24:37.023Z,0
2017-08-06T00:25:37.018Z,0
2017-08-06T00:26:37.008Z,0
2017-08-06T00:27:36.986Z,0
2017-08-06T00:28:36.978Z,0
2017-08-06T00:29:36.650Z,0
2017-08-06T00:30:36.330Z,0
2017-08-06T00:31:36.625Z,0
2017-08-06T00:32:37.235Z,0
2017-08-06T00:33:36.925Z,0
2017-08-06T00:34:36.593Z,0
2017-08-06T00:35:36.574Z,0
2017-08-06T00:36:37.073Z,0
2017-08-06T00:37:36.234Z,0
2017-08-06T00:38:36.860Z,0
2017-08-06T00:39:37.138Z,0
2017-08-06T00:40:36.819Z,0
2017-08-06T00:41:36.808Z,0
2017-08-06T00:42:36.476Z,0
2017-08-06T00:43:36.152Z,0
2017-08-06T00:44:36.451Z,0
2017-08-06T00:45:36.753Z,0
2017-08-06T00:46:36.433Z,0
2017-08-06T00:47:36.412Z,0
2017-08-06T00:48:36.400Z,0
2017-08-06T00:49:36.077Z,0
2017-08-06T00:50:36.384Z,0
2017-08-06T00:51:36.683Z,0
2017-08-06T00:52:36.343Z,0
2017-08-06T00:53:36.018Z,0
2017-08-06T00:54:36.329Z,0
2017-08-06T00:55:36.675Z,0
2017-08-06T00:56:36.298Z,0
2017-08-06T00:57:36.590Z,0
2017-08-06T00:58:36.598Z,0
2017-08-06T00:59:36.573Z,0
2017-08-06T01:00:36.876Z,0
2017-08-06T01:01:36.543Z,0
2017-08-06T01:03:36.834Z,0
2017-08-06T01:04:36.822Z,0
2017-08-06T01:05:35.871Z,0
2017-08-06T01:06:36.800Z,0
2017-08-06T01:07:36.165Z,0
2017-08-06T01:08:36.139Z,0
2017-08-06T01:09:36.125Z,0
2017-08-06T01:10:36.442Z,0
2017-08-06T01:11:36.095Z,0
2017-08-06T01:12:36.428Z,0
2017-08-06T01:13:36.082Z,0
2017-08-06T01:14:36.694Z,0
2017-08-06T01:15:36.673Z,0
2017-08-06T01:16:36.675Z,0
2017-08-06T01:17:36.338Z,0
2017-08-06T01:18:36.641Z,0
2017-08-06T01:19:35.993Z,0
2017-08-06T01:20:36.617Z,0
2017-08-06T01:21:36.599Z,0
2017-08-06T01:22:35.959Z,0
2017-08-06T01:23:36.263Z,0
2017-08-06T01:24:36.264Z,0
2017-08-06T01:25:35.925Z,0
2017-08-06T01:26:36.536Z,0
2017-08-06T01:27:35.991Z,0
2017-08-06T01:28:36.370Z,0
2017-08-06T01:29:36.183Z,0
2017-08-06T01:30:36.164Z,0
2017-08-06T01:31:35.531Z,0
2017-08-06T01:32:35.840Z,0
2017-08-06T01:33:35.823Z,0
2017-08-06T01:34:36.433Z,0
2017-08-06T01:35:35.791Z,0
2017-08-06T01:36:35.777Z,0
2017-08-06T01:37:36.077Z,0
2017-08-06T01:38:35.749Z,0
2017-08-06T01:39:35.737Z,0
2017-08-06T01:40:35.719Z,0
2017-08-06T01:41:35.716Z,0
2017-08-06T01:42:36.036Z,0
2017-08-06T01:43:36.003Z,0
2017-08-06T01:44:35.993Z,0
2017-08-06T01:45:36.283Z,0
2017-08-06T01:46:35.655Z,0
2017-08-06T01:47:35.946Z,0
2017-08-06T01:48:35.923Z,0
2017-08-06T01:49:34.984Z,0
2017-08-06T01:50:35.329Z,0
2017-08-06T01:51:35.582Z,0
2017-08-06T01:52:35.881Z,0
2017-08-06T01:53:35.577Z,0
2017-08-06T01:54:35.851Z,0
2017-08-06T01:55:35.836Z,0
2017-08-06T01:56:35.193Z,0
2017-08-06T01:57:35.825Z,0
2017-08-06T01:58:35.493Z,0
2017-08-06T01:59:35.475Z,0
2017-08-06T02:00:35.771Z,0
2017-08-06T02:01:35.505Z,0
2017-08-06T02:02:35.439Z,0
2017-08-06T02:03:36.083Z,0
2017-08-06T02:04:36.021Z,0
2017-08-06T02:05:36.014Z,0
2017-08-06T02:06:36.020Z,0
2017-08-06T02:07:36.006Z,0
2017-08-06T02:08:35.385Z,0
2017-08-06T02:09:35.965Z,0
2017-08-06T02:10:35.952Z,0
2017-08-06T02:11:35.939Z,0
2017-08-06T02:12:35.611Z,0
2017-08-06T02:13:35.605Z,0
2017-08-06T02:14:35.582Z,0
2017-08-06T02:15:35.895Z,0
2017-08-06T02:16:35.549Z,0
2017-08-06T02:17:35.539Z,0
2017-08-06T02:18:35.529Z,0
2017-08-06T02:19:35.835Z,0
2017-08-06T02:20:34.909Z,0
2017-08-06T02:21:35.205Z,0
2017-08-06T02:22:35.482Z,0
2017-08-06T02:23:35.472Z,0
2017-08-06T02:24:35.775Z,0
2017-08-06T02:25:35.741Z,0
2017-08-06T02:26:35.477Z,0
2017-08-06T02:27:35.118Z,0
2017-08-06T02:28:35.443Z,0
2017-08-06T02:29:35.077Z,0
2017-08-06T02:30:35.062Z,0
2017-08-06T02:31:34.758Z,0
2017-08-06T02:32:35.333Z,0
2017-08-06T02:33:35.656Z,0
2017-08-06T02:34:35.022Z,0
2017-08-06T02:35:35.599Z,0
2017-08-06T02:36:34.961Z,0
2017-08-06T02:37:35.589Z,0
2017-08-06T02:38:35.561Z,0
2017-08-06T02:39:35.240Z,0
2017-08-06T02:40:35.250Z,0
2017-08-06T02:41:34.902Z,0
2017-08-06T02:42:35.211Z,0
2017-08-06T02:43:35.510Z,0
2017-08-06T02:44:34.854Z,0
2017-08-06T02:45:35.361Z,0
2017-08-06T02:46:35.146Z,0
2017-08-06T02:47:35.151Z,0
2017-08-06T02:48:35.432Z,0
2017-08-06T02:49:35.109Z,0
2017-08-06T02:50:35.097Z,0
2017-08-06T02:51:35.383Z,0
2017-08-06T02:52:34.744Z,0
2017-08-06T02:53:34.732Z,0
2017-08-06T02:54:35.390Z,0
2017-08-06T02:55:35.039Z,0
2017-08-06T02:56:35.327Z,0
2017-08-06T02:57:34.749Z,0
2017-08-06T02:58:35.331Z,0
2017-08-06T02:59:34.025Z,0
2017-08-06T03:00:34.948Z,0
2017-08-06T03:01:34.925Z,0
2017-08-06T03:02:34.923Z,0
2017-08-06T03:03:34.598Z,0
2017-08-06T03:04:34.262Z,0
2017-08-06T03:05:34.561Z,0
2017-08-06T03:06:34.261Z,0
2017-08-06T03:07:34.528Z,0
2017-08-06T03:08:34.210Z,0
2017-08-06T03:09:35.123Z,0
2017-08-06T03:10:34.521Z,0
2017-08-06T03:11:34.492Z,0
2017-08-06T03:12:34.791Z,0
2017-08-06T03:13:33.826Z,0
2017-08-06T03:14:34.136Z,0
2017-08-06T03:15:34.418Z,0
2017-08-06T03:16:34.413Z,0
2017-08-06T03:17:34.713Z,0
2017-08-06T03:18:34.432Z,0
2017-08-06T03:19:34.060Z,0
2017-08-06T03:20:34.038Z,0
2017-08-06T03:21:34.653Z,0
2017-08-06T03:22:34.316Z,0
2017-08-06T03:23:34.943Z,0
2017-08-06T03:24:34.944Z,0
2017-08-06T03:25:34.591Z,0
2017-08-06T03:26:34.260Z,0
2017-08-06T03:27:34.298Z,0
2017-08-06T03:28:34.235Z,0
2017-08-06T03:29:34.558Z,0
2017-08-06T03:30:34.916Z,0
2017-08-06T03:31:34.545Z,0
2017-08-06T03:32:34.558Z,0
2017-08-06T03:33:33.854Z,0
2017-08-06T03:34:34.782Z,0
2017-08-06T03:35:34.449Z,0
2017-08-06T03:36:34.452Z,0
2017-08-06T03:37:34.419Z,0
2017-08-06T03:38:34.449Z,0
2017-08-06T03:39:34.698Z,0
2017-08-06T03:40:33.757Z,0
2017-08-06T03:41:34.050Z,0
2017-08-06T03:42:34.364Z,0
2017-08-06T03:43:34.017Z,0
2017-08-06T03:44:34.038Z,0
2017-08-06T03:45:33.992Z,0
2017-08-06T03:46:34.299Z,0
2017-08-06T03:47:34.588Z,0
2017-08-06T03:48:33.320Z,0
2017-08-06T03:49:33.931Z,0
2017-08-06T03:50:34.229Z,0
2017-08-06T03:51:33.913Z,0
2017-08-06T03:52:34.260Z,0
2017-08-06T03:53:33.874Z,0
2017-08-06T03:54:34.174Z,0
2017-08-06T03:55:34.160Z,0
2017-08-06T03:56:33.214Z,0
2017-08-06T03:57:33.861Z,0
2017-08-06T03:58:34.458Z,0
2017-08-06T03:59:34.458Z,0
2017-08-06T04:00:34.107Z,0
2017-08-06T04:01:33.791Z,0
2017-08-06T04:02:34.391Z,0
2017-08-06T04:03:33.739Z,5
2017-08-06T04:04:34.053Z,5
2017-08-06T04:05:34.340Z,5
2017-08-06T04:06:34.019Z,5
2017-08-06T04:07:33.369Z,5
2017-08-06T04:08:33.654Z,5
2017-08-06T04:09:33.954Z,5
2017-08-06T04:10:33.622Z,5
2017-08-06T04:11:34.251Z,5
2017-08-06T04:12:33.901Z,5
2017-08-06T04:13:33.583Z,5
2017-08-06T04:14:33.567Z,10
2017-08-06T04:15:34.183Z,10
2017-08-06T04:16:33.554Z,10
2017-08-06T04:17:33.537Z,10
2017-08-06T04:18:33.198Z,10
2017-08-06T04:19:33.502Z,10
2017-08-06T04:20:33.794Z,10
2017-08-06T04:21:33.772Z,10
2017-08-06T04:22:33.766Z,10
2017-08-06T04:23:33.434Z,15
2017-08-06T04:24:33.729Z,15
2017-08-06T04:25:33.407Z,15
2017-08-06T04:26:33.716Z,15
2017-08-06T04:27:33.688Z,15
2017-08-06T04:28:33.997Z,15
2017-08-06T04:29:33.668Z,15
2017-08-06T04:30:33.651Z,15
2017-08-06T04:31:33.945Z,15
2017-08-06T04:32:33.308Z,20
2017-08-06T04:33:32.996Z,20
2017-08-06T04:34:33.585Z,20
2017-08-06T04:35:33.572Z,20
2017-08-06T04:36:33.567Z,20
2017-08-06T04:37:33.232Z,20
2017-08-06T04:38:33.836Z,20
2017-08-06T04:39:33.523Z,20
2017-08-06T04:40:33.503Z,20
2017-08-06T04:41:33.488Z,25
2017-08-06T04:42:33.165Z,25
2017-08-06T04:43:33.783Z,25
2017-08-06T04:44:33.450Z,25
2017-08-06T04:45:33.430Z,25
2017-08-06T04:46:33.731Z,25
2017-08-06T04:47:33.718Z,25
2017-08-06T04:48:33.699Z,25
2017-08-06T04:49:32.744Z,25
2017-08-06T04:50:33.353Z,30
2017-08-06T04:51:33.349Z,30
2017-08-06T04:52:33.332Z,30
2017-08-06T04:53:33.379Z,30
2017-08-06T04:54:32.983Z,30
2017-08-06T04:55:33.601Z,30
2017-08-06T04:56:32.960Z,30
2017-08-06T04:57:32.948Z,30
2017-08-06T04:58:33.564Z,30
2017-08-06T04:59:33.557Z,30
2017-08-06T05:00:33.541Z,35
2017-08-06T05:01:33.196Z,35
2017-08-06T05:02:33.188Z,35
2017-08-06T05:03:33.490Z,35
2017-08-06T05:04:32.836Z,35
2017-08-06T05:05:33.147Z,35
2017-08-06T05:06:33.125Z,35
2017-08-06T05:07:32.801Z,35
2017-08-06T05:08:33.147Z,35
2017-08-06T05:09:32.765Z,35
2017-08-06T05:10:32.752Z,40
2017-08-06T05:11:32.431Z,40
2017-08-06T05:12:33.350Z,40
2017-08-06T05:13:32.719Z,40
2017-08-06T05:14:32.705Z,40
2017-08-06T05:15:32.992Z,40
2017-08-06T05:16:32.381Z,40
2017-08-06T05:17:32.655Z,40
2017-08-06T05:18:32.957Z,40
2017-08-06T05:19:32.631Z,40
2017-08-06T05:20:32.921Z,40
2017-08-06T05:21:32.597Z,45
2017-08-06T05:23:04.656Z,45
2017-08-06T05:23:33.192Z,45
2017-08-06T05:24:32.872Z,45
2017-08-06T05:25:32.853Z,45
2017-08-06T05:26:33.148Z,45
2017-08-06T05:27:32.844Z,45
2017-08-06T05:28:33.128Z,45
2017-08-06T05:29:33.108Z,45
2017-08-06T05:30:32.667Z,45
2017-08-06T05:31:32.455Z,45
2017-08-06T05:32:32.752Z,50
2017-08-06T05:33:33.068Z,50
2017-08-06T05:34:32.435Z,50
2017-08-06T05:35:32.084Z,50
2017-08-06T05:36:32.700Z,50
2017-08-06T05:37:32.691Z,50
2017-08-06T05:38:32.783Z,50
2017-08-06T05:39:32.653Z,50
2017-08-06T05:40:32.952Z,50
2017-08-06T05:41:32.312Z,50
2017-08-06T05:42:32.600Z,50
2017-08-06T05:43:32.920Z,50
2017-08-06T05:44:32.897Z,55
2017-08-06T05:45:32.255Z,55
2017-08-06T05:46:32.262Z,55
2017-08-06T05:47:32.539Z,55
2017-08-06T05:48:31.914Z,55
2017-08-06T05:49:32.511Z,55
2017-08-06T05:50:31.875Z,55
2017-08-06T05:51:32.174Z,55
2017-08-06T05:52:31.843Z,55
2017-08-06T05:53:32.764Z,55
2017-08-06T05:54:32.127Z,55
2017-08-06T05:55:32.129Z,55
2017-08-06T05:56:32.110Z,55
2017-08-06T05:57:32.400Z,60
2017-08-06T05:58:32.395Z,60
2017-08-06T05:59:32.061Z,60
2017-08-06T06:00:32.367Z,60
2017-08-06T06:01:32.033Z,60
2017-08-06T06:02:32.335Z,60
2017-08-06T06:03:31.687Z,60
2017-08-06T06:04:31.708Z,60
2017-08-06T06:05:32.596Z,60
2017-08-06T06:06:32.269Z,60
2017-08-06T06:07:31.961Z,60
2017-08-06T06:08:32.246Z,60
2017-08-06T06:09:32.236Z,60
2017-08-06T06:10:32.219Z,60
2017-08-06T06:11:32.201Z,60
2017-08-06T06:12:31.570Z,65
2017-08-06T06:13:31.867Z,65
2017-08-06T06:14:31.854Z,65
2017-08-06T06:15:32.457Z,65
2017-08-06T06:16:31.826Z,65
2017-08-06T06:17:31.496Z,65
2017-08-06T06:18:31.511Z,65
2017-08-06T06:19:32.108Z,65
2017-08-06T06:20:31.771Z,65
2017-08-06T06:21:32.076Z,65
2017-08-06T06:22:31.756Z,65
2017-08-06T06:23:32.365Z,65
2017-08-06T06:24:31.406Z,65
2017-08-06T06:25:32.009Z,65
2017-08-06T06:26:32.026Z,65
2017-08-06T06:27:31.701Z,65
2017-08-06T06:28:31.981Z,65
2017-08-06T06:29:31.338Z,70
2017-08-06T06:30:31.943Z,70
2017-08-06T06:31:31.939Z,70
2017-08-06T06:32:31.002Z,70
2017-08-06T06:33:31.606Z,70
2017-08-06T06:34:31.279Z,70
2017-08-06T06:35:31.584Z,70
2017-08-06T06:36:31.867Z,70
2017-08-06T06:37:31.237Z,70
2017-08-06T06:38:32.173Z,70
2017-08-06T06:39:31.212Z,70
2017-08-06T06:40:32.121Z,70
2017-08-06T06:41:31.489Z,70
2017-08-06T06:42:31.810Z,70
2017-08-06T06:43:31.458Z,70
2017-08-06T06:44:31.758Z,70
2017-08-06T06:45:31.749Z,70
2017-08-06T06:46:31.750Z,70
2017-08-06T06:47:31.724Z,70
2017-08-06T06:48:32.023Z,70
2017-08-06T06:49:31.435Z,70
2017-08-06T06:50:31.680Z,70
2017-08-06T06:51:31.059Z,70
2017-08-06T06:52:31.676Z,70
2017-08-06T06:53:31.020Z,75
2017-08-06T06:54:31.996Z,75
2017-08-06T06:55:31.011Z,75
2017-08-06T06:56:31.308Z,75
2017-08-06T06:57:31.599Z,75
2017-08-06T06:58:31.892Z,80
2017-08-06T06:59:30.941Z,80
2017-08-06T07:00:31.248Z,80
2017-08-06T07:01:31.257Z,80
2017-08-06T07:02:31.268Z,80
2017-08-06T07:03:31.214Z,80
2017-08-06T07:04:31.816Z,80
2017-08-06T07:05:31.501Z,80
2017-08-06T07:06:31.797Z,80
2017-08-06T07:07:31.817Z,80
2017-08-06T07:08:31.449Z,80
2017-08-06T07:09:31.135Z,80
2017-08-06T07:10:31.741Z,85
2017-08-06T07:11:31.730Z,85
2017-08-06T07:12:31.723Z,85
2017-08-06T07:13:31.391Z,85
2017-08-06T07:14:31.577Z,85
2017-08-06T07:15:31.707Z,85
2017-08-06T07:16:31.352Z,90
2017-08-06T07:17:31.027Z,90
2017-08-06T07:18:31.340Z,90
2017-08-06T07:19:31.092Z,90
2017-08-06T07:20:30.989Z,90
2017-08-06T07:21:31.282Z,90
2017-08-06T07:22:30.972Z,95
2017-08-06T07:23:31.579Z,95
2017-08-06T07:24:31.249Z,95
2017-08-06T07:25:31.241Z,95
2017-08-06T07:26:30.909Z,95
2017-08-06T07:27:31.536Z,95
2017-08-06T07:28:31.522Z,95
2017-08-06T07:29:30.901Z,100
2017-08-06T07:30:31.068Z,100
2017-08-06T07:31:31.474Z,100
2017-08-06T07:32:31.152Z,100
2017-08-06T07:33:31.462Z,100
2017-08-06T07:34:31.139Z,100
2017-08-06T07:35:31.448Z,100
2017-08-06T07:36:30.484Z,100
2017-08-06T07:37:31.101Z,100
2017-08-06T07:38:31.079Z,100
2017-08-06T07:39:30.455Z,105
2017-08-06T07:40:30.749Z,105
2017-08-06T07:41:31.044Z,105
2017-08-06T07:42:31.343Z,105
2017-08-06T07:43:30.728Z,110
2017-08-06T07:44:30.710Z,110
2017-08-06T07:45:30.682Z,115
2017-08-06T07:46:31.009Z,115
2017-08-06T07:47:31.316Z,115
2017-08-06T07:48:30.654Z,115
2017-08-06T07:49:30.636Z,115
2017-08-06T07:50:30.676Z,115
2017-08-06T07:51:30.310Z,115
2017-08-06T07:52:30.955Z,115
2017-08-06T07:53:30.599Z,115
2017-08-06T07:54:30.586Z,115
2017-08-06T07:55:30.574Z,115
2017-08-06T07:56:30.881Z,120
2017-08-06T07:57:30.862Z,125
2017-08-06T07:58:30.229Z,125
2017-08-06T07:59:30.536Z,120
2017-08-06T08:00:30.832Z,120
2017-08-06T08:01:30.506Z,125
2017-08-06T08:02:30.189Z,130
2017-08-06T08:03:30.488Z,125
2017-08-06T08:04:30.795Z,125
2017-08-06T08:05:30.458Z,125
2017-08-06T08:06:31.074Z,125
2017-08-06T08:07:30.468Z,125
2017-08-06T08:08:30.423Z,125
2017-08-06T08:09:31.040Z,125
2017-08-06T08:10:31.041Z,130
2017-08-06T08:11:31.023Z,130
2017-08-06T08:12:30.432Z,135
2017-08-06T08:13:30.692Z,125
2017-08-06T08:14:30.042Z,140
2017-08-06T08:15:30.664Z,130
2017-08-06T08:16:30.649Z,130
2017-08-06T08:17:30.015Z,520
2017-08-06T08:18:30.954Z,1335
2017-08-06T08:19:30.674Z,1540
2017-08-06T08:20:30.618Z,1535
2017-08-06T08:21:30.286Z,1490
2017-08-06T08:22:30.587Z,1475
2017-08-06T08:23:30.584Z,1510
2017-08-06T08:24:30.888Z,1540
2017-08-06T08:25:30.321Z,1535
2017-08-06T08:26:30.603Z,1525
2017-08-06T08:27:30.572Z,1520
2017-08-06T08:28:30.574Z,1505
2017-08-06T08:29:30.564Z,1475
2017-08-06T08:30:30.547Z,1440
2017-08-06T08:31:30.225Z,210
2017-08-06T08:32:30.216Z,245
2017-08-06T08:33:30.524Z,225
2017-08-06T08:34:30.834Z,1555
2017-08-06T08:35:30.517Z,565
2017-08-06T08:36:30.827Z,155
2017-08-06T08:37:30.511Z,155
2017-08-06T08:38:30.509Z,1400
2017-08-06T08:39:30.548Z,1365
2017-08-06T08:40:30.510Z,615
2017-08-06T08:41:30.175Z,210
2017-08-06T08:42:30.482Z,250
2017-08-06T08:43:30.466Z,835
2017-08-06T08:44:30.218Z,735
2017-08-06T08:45:30.789Z,710
2017-08-06T08:46:30.505Z,685
2017-08-06T08:47:30.783Z,505
2017-08-06T08:48:30.451Z,400
2017-08-06T08:49:30.447Z,425
2017-08-06T08:50:30.441Z,240
2017-08-06T08:51:30.215Z,220
2017-08-06T08:52:30.428Z,215
2017-08-06T08:53:30.432Z,220
2017-08-06T08:54:30.106Z,210
2017-08-06T08:55:30.162Z,540
2017-08-06T08:56:29.771Z,225
2017-08-06T08:57:30.717Z,180
2017-08-06T08:58:30.079Z,160
2017-08-06T08:59:30.704Z,160
2017-08-06T09:00:30.373Z,170
2017-08-06T09:01:30.062Z,215
2017-08-06T09:02:30.050Z,300
2017-08-06T09:03:30.043Z,310
2017-08-06T09:04:30.039Z,335
2017-08-06T09:05:30.338Z,385
2017-08-06T09:06:30.068Z,345
2017-08-06T09:07:30.379Z,260
2017-08-06T09:08:30.000Z,150
2017-08-06T09:09:30.319Z,140
2017-08-06T09:10:30.001Z,135
2017-08-06T09:11:29.995Z,130
2017-08-06T09:12:29.985Z,135
2017-08-06T09:13:29.652Z,140
2017-08-06T09:14:30.287Z,140
2017-08-06T09:15:30.268Z,150
2017-08-06T09:16:30.142Z,170
2017-08-06T09:17:30.264Z,190
2017-08-06T09:18:29.637Z,205
2017-08-06T09:19:30.234Z,205
2017-08-06T09:20:30.230Z,190
2017-08-06T09:21:29.903Z,195
2017-08-06T09:22:30.261Z,240
2017-08-06T09:23:30.519Z,230
2017-08-06T09:24:30.524Z,240
2017-08-06T09:25:30.495Z,250
2017-08-06T09:26:29.862Z,255
2017-08-06T09:27:30.170Z,245
2017-08-06T09:28:30.173Z,225
2017-08-06T09:29:29.834Z,200
2017-08-06T09:30:29.771Z,210
2017-08-06T09:31:30.143Z,200
2017-08-06T09:32:30.135Z,200
2017-08-06T09:33:30.130Z,225
2017-08-06T09:34:29.920Z,215
2017-08-06T09:35:30.164Z,205
2017-08-06T09:36:29.775Z,205
2017-08-06T09:37:29.787Z,210
2017-08-06T09:38:29.762Z,210
2017-08-06T09:39:30.066Z,230
2017-08-06T09:40:30.366Z,250
2017-08-06T09:41:29.782Z,290
2017-08-06T09:42:30.351Z,325
2017-08-06T09:43:29.722Z,355
2017-08-06T09:44:29.093Z,375
2017-08-06T09:45:30.334Z,325
2017-08-06T09:46:30.017Z,255
2017-08-06T09:47:30.234Z,205
2017-08-06T09:48:29.702Z,225
2017-08-06T09:49:30.392Z,255
2017-08-06T09:50:29.363Z,260
2017-08-06T09:51:29.664Z,250
2017-08-06T09:52:29.658Z,245
2017-08-06T09:53:29.951Z,235
2017-08-06T09:54:29.012Z,235
2017-08-06T09:55:30.259Z,250
2017-08-06T09:56:29.618Z,290
2017-08-06T09:57:30.240Z,315
2017-08-06T09:58:29.343Z,445
2017-08-06T09:59:29.622Z,360
2017-08-06T10:00:30.226Z,355
2017-08-06T10:01:29.902Z,335
2017-08-06T10:02:29.873Z,320
2017-08-06T10:03:28.925Z,340
2017-08-06T10:04:29.248Z,355
2017-08-06T10:05:29.570Z,345
2017-08-06T10:06:29.847Z,330
2017-08-06T10:07:29.542Z,295
2017-08-06T10:08:29.831Z,240
2017-08-06T10:09:29.504Z,150
2017-08-06T10:10:29.810Z,110
2017-08-06T10:11:29.823Z,90
2017-08-06T10:12:29.183Z,85
2017-08-06T10:13:29.782Z,90
2017-08-06T10:14:29.780Z,105
2017-08-06T10:15:29.774Z,120
2017-08-06T10:16:29.763Z,140
2017-08-06T10:17:29.443Z,145
2017-08-06T10:18:29.742Z,175
2017-08-06T10:19:29.733Z,235
2017-08-06T10:20:30.040Z,375
2017-08-06T10:21:29.778Z,330
2017-08-06T10:22:29.713Z,450
2017-08-06T10:23:29.705Z,360
2017-08-06T10:24:29.694Z,285
2017-08-06T10:25:29.373Z,355
2017-08-06T10:26:29.406Z,435
2017-08-06T10:27:29.983Z,450
2017-08-06T10:28:29.356Z,885
2017-08-06T10:29:29.973Z,1590
2017-08-06T10:30:29.651Z,1460
2017-08-06T10:31:29.363Z,1305
2017-08-06T10:32:28.709Z,1640
2017-08-06T10:33:29.978Z,1025
2017-08-06T10:34:29.984Z,1535
2017-08-06T10:35:29.333Z,385
2017-08-06T10:36:29.308Z,350
2017-08-06T10:37:29.920Z,345
2017-08-06T10:38:29.605Z,1920
2017-08-06T10:39:28.988Z,2120
2017-08-06T10:40:29.599Z,2245
2017-08-06T10:41:29.654Z,2250
2017-08-06T10:42:29.912Z,2200
2017-08-06T10:43:29.621Z,2180
2017-08-06T10:44:29.200Z,2130
2017-08-06T10:45:29.284Z,2130
2017-08-06T10:46:29.577Z,2120
2017-08-06T10:47:29.906Z,2165
2017-08-06T10:48:29.274Z,2200
2017-08-06T10:49:29.893Z,2050
2017-08-06T10:50:29.896Z,455
2017-08-06T10:51:29.584Z,1295
2017-08-06T10:52:29.940Z,2005
2017-08-06T10:53:28.960Z,2005
2017-08-06T10:54:29.274Z,2060
2017-08-06T10:55:28.959Z,2095
2017-08-06T10:56:29.264Z,2020
2017-08-06T10:57:29.267Z,2000
2017-08-06T10:58:29.591Z,290
2017-08-06T10:59:29.593Z,2090
2017-08-06T11:00:29.294Z,2075
2017-08-06T11:01:29.602Z,2080
2017-08-06T11:02:29.938Z,2040
2017-08-06T11:03:29.592Z,2040
2017-08-06T11:04:29.284Z,2000
2017-08-06T11:05:29.285Z,2015
2017-08-06T11:06:29.303Z,1995
2017-08-06T11:07:28.971Z,1480
2017-08-06T11:08:29.597Z,2075
2017-08-06T11:09:29.915Z,2030
2017-08-06T11:10:29.606Z,2130
2017-08-06T11:11:29.605Z,1385
2017-08-06T11:12:29.318Z,2245
2017-08-06T11:13:29.005Z,2305
2017-08-06T11:14:29.613Z,510
2017-08-06T11:15:29.344Z,875
2017-08-06T11:16:29.666Z,2230
2017-08-06T11:17:29.313Z,2215
2017-08-06T11:18:29.940Z,2240
2017-08-06T11:19:29.940Z,2225
2017-08-06T11:20:29.962Z,2020
2017-08-06T11:21:29.625Z,540
2017-08-06T11:22:29.937Z,445
2017-08-06T11:23:29.948Z,990
2017-08-06T11:24:29.328Z,395
2017-08-06T11:25:29.633Z,315
2017-08-06T11:26:29.329Z,280
2017-08-06T11:27:29.334Z,285
2017-08-06T11:28:29.339Z,290
2017-08-06T11:29:29.322Z,325
2017-08-06T11:30:29.532Z,360
2017-08-06T11:31:29.369Z,810
2017-08-06T11:32:29.016Z,480
2017-08-06T11:33:29.013Z,445
2017-08-06T11:34:29.647Z,455
2017-08-06T11:35:29.631Z,630
2017-08-06T11:36:29.558Z,395
2017-08-06T11:37:29.657Z,465
2017-08-06T11:38:29.965Z,665
2017-08-06T11:39:29.640Z,665
2017-08-06T11:40:29.323Z,595
2017-08-06T11:41:29.638Z,410
2017-08-06T11:42:29.658Z,415
2017-08-06T11:43:29.351Z,665
2017-08-06T11:44:29.944Z,1805
2017-08-06T11:45:29.939Z,1755
2017-08-06T11:46:28.704Z,1500
2017-08-06T11:47:29.925Z,1380
2017-08-06T11:48:29.610Z,1205
2017-08-06T11:49:29.617Z,1050
2017-08-06T11:50:28.990Z,345
2017-08-06T11:51:29.348Z,275
2017-08-06T11:52:29.300Z,255
2017-08-06T11:53:29.923Z,240
2017-08-06T11:54:29.604Z,230
2017-08-06T11:55:28.985Z,240
2017-08-06T11:56:29.678Z,275
2017-08-06T11:57:29.611Z,315
2017-08-06T11:58:28.969Z,270
2017-08-06T11:59:29.905Z,220
2017-08-06T12:00:29.590Z,185
2017-08-06T12:01:28.733Z,170
2017-08-06T12:02:29.295Z,190
2017-08-06T12:03:29.591Z,220
2017-08-06T12:04:29.275Z,295
2017-08-06T12:05:29.268Z,2030
2017-08-06T12:06:29.899Z,2005
2017-08-06T12:07:29.596Z,1745
2017-08-06T12:08:29.882Z,1985
2017-08-06T12:09:29.252Z,2000
2017-08-06T12:10:29.562Z,2090
2017-08-06T12:11:29.559Z,2110
2017-08-06T12:12:28.947Z,2055
2017-08-06T12:13:28.952Z,2015
2017-08-06T12:14:29.573Z,2035
2017-08-06T12:15:29.565Z,2065
2017-08-06T12:16:29.932Z,2090
2017-08-06T12:17:29.250Z,2080
2017-08-06T12:18:29.248Z,2075
2017-08-06T12:19:28.951Z,2085
2017-08-06T12:20:29.560Z,2080
2017-08-06T12:21:29.576Z,2075
2017-08-06T12:22:29.884Z,2050
2017-08-06T12:23:28.941Z,2055
2017-08-06T12:24:29.894Z,2010
2017-08-06T12:25:28.956Z,1925
2017-08-06T12:26:28.979Z,335
2017-08-06T12:27:29.618Z,2105
2017-08-06T12:28:29.592Z,2170
2017-08-06T12:29:29.599Z,2130
2017-08-06T12:30:29.795Z,2075
2017-08-06T12:31:29.606Z,2030
2017-08-06T12:32:28.967Z,2005
2017-08-06T12:33:29.624Z,2025
2017-08-06T12:34:29.296Z,975
2017-08-06T12:35:29.947Z,1545
2017-08-06T12:36:29.299Z,570
2017-08-06T12:37:29.306Z,1795
2017-08-06T12:38:29.621Z,1790
2017-08-06T12:39:29.933Z,1780
2017-08-06T12:40:29.944Z,1625
2017-08-06T12:41:29.328Z,1785
2017-08-06T12:42:29.630Z,880
2017-08-06T12:43:29.966Z,295
2017-08-06T12:44:29.340Z,1935
2017-08-06T12:45:29.659Z,385
2017-08-06T12:46:29.645Z,1950
2017-08-06T12:47:29.336Z,1970
2017-08-06T12:48:29.340Z,1495
2017-08-06T12:49:29.655Z,1935
2017-08-06T12:50:29.666Z,1940
2017-08-06T12:51:29.365Z,1985
2017-08-06T12:52:29.991Z,1995
2017-08-06T12:53:29.677Z,2000
2017-08-06T12:54:29.369Z,1960
2017-08-06T12:55:29.691Z,1955
2017-08-06T12:56:29.685Z,1980
2017-08-06T12:57:29.993Z,1095
2017-08-06T12:58:29.680Z,1960
2017-08-06T12:59:29.379Z,1505
2017-08-06T13:00:28.764Z,940
2017-08-06T13:01:29.412Z,1950
2017-08-06T13:02:29.711Z,1885
2017-08-06T13:03:29.104Z,1890
2017-08-06T13:04:29.287Z,1795
2017-08-06T13:05:29.091Z,1795
2017-08-06T13:06:29.429Z,1810
2017-08-06T13:07:30.014Z,1790
2017-08-06T13:08:30.052Z,1795
2017-08-06T13:09:29.760Z,1820
2017-08-06T13:10:30.055Z,1825
2017-08-06T13:11:29.769Z,1875
2017-08-06T13:12:29.150Z,1890
2017-08-06T13:13:29.782Z,1940
2017-08-06T13:14:29.168Z,235
2017-08-06T13:15:29.451Z,220
2017-08-06T13:16:29.770Z,255
2017-08-06T13:17:30.110Z,755
2017-08-06T13:18:29.477Z,1815
2017-08-06T13:19:30.112Z,1815
2017-08-06T13:20:30.105Z,1810
2017-08-06T13:21:29.489Z,1805
2017-08-06T13:22:29.842Z,1820
2017-08-06T13:23:29.798Z,1860
2017-08-06T13:24:29.504Z,1905
2017-08-06T13:25:29.514Z,1890
2017-08-06T13:26:29.853Z,885
2017-08-06T13:27:30.140Z,1225
2017-08-06T13:28:29.814Z,1030
2017-08-06T13:29:29.201Z,1650
2017-08-06T13:30:30.332Z,1820
2017-08-06T13:31:30.127Z,1860
2017-08-06T13:32:30.125Z,1845
2017-08-06T13:33:29.826Z,1865
2017-08-06T13:34:29.819Z,1870
2017-08-06T13:35:30.148Z,1850
2017-08-06T13:36:30.164Z,1835
2017-08-06T13:37:30.160Z,1815
2017-08-06T13:38:29.530Z,1800
2017-08-06T13:39:29.529Z,1805
2017-08-06T13:40:29.858Z,1800
2017-08-06T13:41:29.841Z,1800
2017-08-06T13:42:29.887Z,1780
2017-08-06T13:43:29.529Z,1740
2017-08-06T13:44:29.862Z,1725
2017-08-06T13:45:29.238Z,1670
2017-08-06T13:46:29.868Z,1710
2017-08-06T13:47:29.248Z,1710
2017-08-06T13:48:30.199Z,1710
2017-08-06T13:49:29.889Z,1710
2017-08-06T13:50:29.889Z,1695
2017-08-06T13:51:29.567Z,1690
2017-08-06T13:52:29.888Z,370
2017-08-06T13:53:29.637Z,440
2017-08-06T13:54:29.579Z,1635
2017-08-06T13:55:29.814Z,1745
2017-08-06T13:56:29.586Z,1730
2017-08-06T13:57:30.242Z,1705
2017-08-06T13:58:30.264Z,1735
2017-08-06T13:59:30.265Z,1735
2017-08-06T14:00:29.614Z,1685
2017-08-06T14:01:29.285Z,1650
2017-08-06T14:02:29.933Z,1670
2017-08-06T14:03:30.277Z,1695
2017-08-06T14:04:29.933Z,1705
2017-08-06T14:05:29.937Z,1680